createdAt,value
2023-02-28T00:01:05.080Z,23.00
2023-02-28T00:04:10.421Z,17.80
2023-02-28T00:07:13.809Z,19.60
2023-02-28T00:10:21.649Z,21.60
2023-02-28T00:13:24.929Z,19.40
2023-02-28T00:16:28.253Z,19.60
2023-02-28T00:19:32.893Z,22.75
2023-02-28T00:22:36.945Z,24.00
2023-02-28T00:25:40.183Z,22.00
2023-02-28T00:28:43.649Z,24.33
2023-02-28T00:31:47.170Z,22.80
2023-02-28T00:34:51.805Z,19.75
2023-02-28T00:37:55.071Z,23.00
2023-02-28T00:40:59.637Z,21.00
2023-02-28T00:44:02.905Z,23.60
2023-02-28T00:47:09.039Z,22.60
2023-02-28T00:50:14.050Z,24.60
2023-02-28T00:53:17.409Z,20.75
2023-02-28T00:56:20.701Z,25.20
2023-02-28T00:59:24.222Z,24.50
2023-02-28T01:02:27.828Z,22.80
2023-02-28T01:05:32.554Z,24.80
2023-02-28T01:08:35.822Z,22.00
2023-02-28T01:11:40.261Z,18.00
2023-02-28T01:14:43.952Z,23.40
2023-02-28T01:17:47.237Z,21.00
2023-02-28T01:20:52.827Z,19.80
2023-02-28T01:23:58.850Z,21.00
2023-02-28T01:27:02.224Z,22.60
2023-02-28T01:30:06.583Z,20.60
2023-02-28T01:33:10.084Z,23.40
2023-02-28T01:36:17.027Z,26.40
2023-02-28T01:39:20.304Z,25.00
2023-02-28T01:42:23.532Z,22.40
2023-02-28T01:45:29.804Z,23.00
2023-02-28T01:48:36.602Z,22.20
2023-02-28T01:51:51.735Z,24.80
2023-02-28T01:54:58.945Z,23.60
2023-02-28T01:58:06.404Z,23.60
2023-02-28T02:01:09.712Z,26.60
2023-02-28T02:04:13.112Z,21.00
2023-02-28T02:07:20.130Z,23.00
2023-02-28T02:10:28.904Z,25.25
2023-02-28T02:13:42.005Z,23.00
2023-02-28T02:17:02.324Z,21.00
2023-02-28T02:20:40.729Z,25.75
2023-02-28T02:24:22.726Z,22.50
2023-02-28T02:28:00.223Z,25.00
2023-02-28T02:31:43.625Z,23.20
2023-02-28T02:34:58.972Z,23.80
2023-02-28T02:38:12.081Z,19.00
2023-02-28T02:41:21.852Z,25.50
2023-02-28T02:44:29.474Z,25.50
2023-02-28T02:47:34.183Z,24.20
2023-02-28T02:50:45.560Z,27.60
2023-02-28T02:53:53.226Z,23.00
2023-02-28T02:57:00.352Z,26.33
2023-02-28T03:00:09.485Z,22.40
2023-02-28T03:03:14.587Z,24.00
2023-02-28T03:06:19.242Z,23.20
2023-02-28T03:09:22.647Z,25.80
2023-02-28T03:12:34.784Z,22.00
2023-02-28T03:15:53.175Z,24.75
2023-02-28T03:19:05.781Z,24.60
2023-02-28T03:22:21.808Z,25.60
2023-02-28T03:25:33.833Z,21.80
2023-02-28T03:28:46.696Z,25.00
2023-02-28T03:31:55.237Z,23.00
2023-02-28T03:35:07.312Z,23.00
2023-02-28T03:38:19.218Z,31.40
2023-02-28T03:41:26.086Z,29.40
2023-02-28T03:44:34.768Z,28.60
2023-02-28T03:47:44.739Z,21.40
2023-02-28T03:50:52.591Z,24.50
2023-02-28T03:54:01.607Z,29.00
2023-02-28T03:57:12.956Z,29.00
2023-02-28T04:00:21.945Z,38.25
2023-02-28T04:03:25.496Z,29.33
2023-02-28T04:06:29.049Z,28.50
2023-02-28T04:09:33.710Z,27.60
2023-02-28T04:12:37.024Z,27.00
2023-02-28T04:15:40.301Z,34.80
2023-02-28T04:18:44.591Z,29.60
2023-02-28T04:21:50.225Z,31.00
2023-02-28T04:24:55.492Z,26.00
2023-02-28T04:27:58.784Z,29.60
2023-02-28T04:31:05.099Z,31.00
2023-02-28T04:34:08.555Z,30.00
2023-02-28T04:37:14.175Z,28.25
2023-02-28T04:40:19.360Z,27.60
2023-02-28T04:43:22.683Z,28.80
2023-02-28T04:46:25.912Z,31.40
2023-02-28T04:49:29.648Z,34.00
2023-02-28T04:52:32.972Z,29.60
2023-02-28T04:55:37.875Z,39.75
2023-02-28T04:58:41.562Z,30.60
2023-02-28T05:01:48.485Z,33.20
2023-02-28T05:04:51.807Z,32.33
2023-02-28T05:07:56.706Z,34.60
2023-02-28T05:11:01.928Z,41.60
2023-02-28T05:14:06.788Z,35.75
2023-02-28T05:17:11.446Z,35.75
2023-02-28T05:20:16.346Z,26.75
2023-02-28T05:23:22.044Z,35.00
2023-02-28T05:26:27.214Z,34.00
2023-02-28T05:29:30.804Z,32.00
2023-02-28T05:32:34.069Z,31.50
2023-02-28T05:35:40.381Z,35.33
2023-02-28T05:38:43.964Z,34.40
2023-02-28T05:41:48.669Z,30.00
2023-02-28T05:44:52.994Z,29.25
2023-02-28T05:47:56.692Z,31.80
2023-02-28T05:51:00.154Z,32.00
2023-02-28T05:54:03.630Z,38.50
2023-02-28T05:57:18.939Z,29.20
2023-02-28T06:00:27.572Z,34.25
2023-02-28T06:03:31.052Z,27.00
2023-02-28T06:06:36.918Z,38.60
2023-02-28T06:09:40.702Z,33.40
2023-02-28T06:12:45.319Z,30.60
2023-02-28T06:15:48.589Z,36.00
2023-02-28T06:18:51.969Z,35.00
2023-02-28T06:21:55.964Z,37.00
2023-02-28T06:24:59.204Z,33.20
2023-02-28T06:28:04.071Z,30.50
2023-02-28T06:31:11.382Z,33.60
2023-02-28T06:34:14.889Z,36.40
2023-02-28T06:37:18.190Z,31.00
2023-02-28T06:40:21.710Z,28.00
2023-02-28T06:43:27.731Z,31.25
2023-02-28T06:46:31.096Z,35.60
2023-02-28T06:49:35.959Z,34.00
2023-02-28T06:52:39.487Z,33.50
2023-02-28T06:55:43.264Z,36.20
2023-02-28T06:58:50.789Z,34.60
2023-02-28T07:01:54.129Z,33.00
2023-02-28T07:04:57.453Z,34.00
2023-02-28T07:08:00.760Z,36.00
2023-02-28T07:11:05.355Z,36.00
2023-02-28T07:14:10.046Z,35.40
2023-02-28T07:17:13.692Z,33.60
2023-02-28T07:20:17.178Z,36.60
2023-02-28T07:23:20.780Z,36.00
2023-02-28T07:26:24.016Z,33.60
2023-02-28T07:29:29.004Z,35.00
2023-02-28T07:32:32.318Z,36.25
2023-02-28T07:35:35.667Z,33.20
2023-02-28T07:38:39.689Z,35.40
2023-02-28T07:41:45.217Z,37.00
2023-02-28T07:44:49.903Z,34.80
2023-02-28T07:47:53.219Z,36.00
2023-02-28T07:50:57.629Z,32.00
2023-02-28T07:54:00.920Z,29.25
2023-02-28T07:57:04.416Z,28.80
2023-02-28T08:00:11.885Z,29.50
2023-02-28T08:03:16.922Z,30.40
2023-02-28T08:06:22.927Z,27.25
2023-02-28T08:09:26.693Z,31.25
2023-02-28T08:12:30.354Z,35.60
2023-02-28T08:15:35.089Z,27.00
2023-02-28T08:18:38.507Z,30.40
2023-02-28T08:21:41.990Z,31.00
2023-02-28T08:24:45.556Z,29.60
2023-02-28T08:27:48.825Z,19.40
2023-02-28T08:30:53.572Z,23.40
2023-02-28T08:33:59.841Z,23.00
2023-02-28T08:37:03.177Z,19.00
2023-02-28T08:40:07.718Z,21.00
2023-02-28T08:43:11.198Z,20.60
2023-02-28T08:46:16.097Z,23.00
2023-02-28T08:49:19.808Z,17.80
2023-02-28T08:52:23.095Z,22.00
2023-02-28T08:55:26.567Z,20.50
2023-02-28T08:58:30.256Z,20.00
2023-02-28T09:01:35.014Z,20.20
2023-02-28T09:04:38.321Z,18.00
2023-02-28T09:07:41.978Z,15.80
2023-02-28T09:10:45.488Z,14.60
2023-02-28T09:13:49.193Z,14.40
2023-02-28T09:16:53.869Z,13.00
2023-02-28T09:19:58.168Z,13.60
2023-02-28T09:23:01.866Z,16.00
2023-02-28T09:26:05.767Z,13.60
2023-02-28T09:29:09.062Z,13.80
2023-02-28T09:32:13.978Z,13.60
2023-02-28T09:35:17.444Z,11.00
2023-02-28T09:38:20.890Z,12.00
2023-02-28T09:41:29.224Z,13.00
2023-02-28T09:44:37.463Z,13.20
2023-02-28T09:47:46.224Z,14.75
2023-02-28T09:50:52.837Z,12.60
2023-02-28T09:54:01.409Z,13.00
2023-02-28T09:57:10.952Z,14.00
2023-02-28T10:00:20.252Z,13.40
2023-02-28T10:03:39.035Z,13.00
2023-02-28T10:06:48.814Z,15.00
2023-02-28T10:09:57.135Z,14.00
2023-02-28T10:13:03.852Z,13.60
2023-02-28T10:16:12.095Z,17.00
2023-02-28T10:19:22.723Z,14.60
2023-02-28T10:22:31.309Z,12.60
2023-02-28T10:25:34.822Z,13.60
2023-02-28T10:28:38.144Z,14.80
2023-02-28T10:31:42.704Z,12.00
2023-02-28T10:34:53.309Z,12.25
2023-02-28T10:37:58.726Z,11.80
2023-02-28T10:41:10.006Z,12.00
2023-02-28T10:44:22.740Z,11.00
2023-02-28T10:47:26.087Z,11.00
2023-02-28T10:50:37.700Z,12.00
2023-02-28T10:54:00.684Z,12.80
2023-02-28T10:57:10.282Z,12.00
2023-02-28T11:00:19.897Z,11.60
2023-02-28T11:03:32.601Z,14.60
2023-02-28T11:06:37.458Z,12.60
2023-02-28T11:09:44.434Z,12.75
2023-02-28T11:12:52.949Z,12.60
2023-02-28T11:15:59.672Z,15.00
2023-02-28T11:19:05.212Z,12.00
2023-02-28T11:22:11.799Z,13.00
2023-02-28T11:25:23.981Z,12.00
2023-02-28T11:28:30.140Z,11.80
2023-02-28T11:31:33.489Z,16.00
2023-02-28T11:34:41.097Z,12.00
2023-02-28T11:37:46.953Z,15.00
2023-02-28T11:41:06.087Z,14.00
2023-02-28T11:44:24.307Z,11.80
2023-02-28T11:47:36.887Z,15.00
2023-02-28T11:50:56.974Z,12.00
2023-02-28T11:54:26.140Z,14.80
2023-02-28T11:57:51.547Z,11.00
2023-02-28T12:01:29.513Z,11.40
2023-02-28T12:04:44.197Z,10.60
2023-02-28T12:08:00.654Z,13.00
2023-02-28T12:11:17.648Z,12.00
2023-02-28T12:14:39.036Z,10.60
2023-02-28T12:17:57.279Z,14.00
2023-02-28T12:21:08.098Z,11.00
2023-02-28T12:24:31.169Z,12.20
2023-02-28T12:27:40.829Z,11.60
2023-02-28T12:30:53.201Z,12.80
2023-02-28T12:34:02.695Z,13.60
2023-02-28T12:37:10.042Z,16.60
2023-02-28T12:40:15.143Z,12.50
2023-02-28T12:43:21.964Z,14.60
2023-02-28T12:46:31.669Z,13.00
2023-02-28T12:49:40.500Z,15.00
2023-02-28T12:52:55.845Z,19.00
2023-02-28T12:56:11.315Z,15.60
2023-02-28T12:59:25.403Z,14.00
2023-02-28T13:03:00.772Z,14.00
2023-02-28T13:06:33.461Z,16.00
2023-02-28T13:09:36.841Z,15.60
2023-02-28T13:12:51.006Z,14.00
2023-02-28T13:16:05.869Z,14.75
2023-02-28T13:19:13.560Z,13.80
2023-02-28T13:22:23.072Z,17.60
2023-02-28T13:25:55.715Z,16.80
2023-02-28T13:29:30.847Z,17.00
2023-02-28T13:32:41.009Z,13.00
2023-02-28T13:35:47.372Z,16.60
2023-02-28T13:38:52.796Z,15.00
2023-02-28T13:41:56.079Z,15.80
2023-02-28T13:45:25.467Z,16.00
2023-02-28T13:48:32.155Z,13.60
2023-02-28T13:51:42.804Z,16.20
2023-02-28T13:55:06.050Z,15.80
2023-02-28T13:58:29.634Z,17.00
2023-02-28T14:01:52.646Z,17.00
2023-02-28T14:05:08.109Z,16.00
2023-02-28T14:08:18.945Z,15.00
2023-02-28T14:11:32.393Z,18.00
2023-02-28T14:14:57.415Z,12.60
2023-02-28T14:18:03.649Z,16.50
2023-02-28T14:21:18.998Z,15.00
2023-02-28T14:24:41.479Z,20.40
2023-02-28T14:27:52.197Z,19.60
2023-02-28T14:31:05.869Z,21.00
2023-02-28T14:34:33.288Z,15.20
2023-02-28T14:37:42.093Z,17.40
2023-02-28T14:40:46.812Z,18.80
2023-02-28T14:43:52.685Z,20.00
2023-02-28T14:46:58.012Z,16.60
2023-02-28T14:50:03.060Z,18.25
2023-02-28T14:53:17.603Z,17.00
2023-02-28T14:56:24.639Z,18.75
2023-02-28T14:59:30.833Z,17.00
2023-02-28T15:02:37.481Z,20.00
2023-02-28T15:05:40.887Z,15.75
2023-02-28T15:08:46.335Z,19.20
2023-02-28T15:11:52.882Z,17.00
2023-02-28T15:14:56.128Z,18.00
2023-02-28T15:18:10.399Z,16.50
2023-02-28T15:21:18.694Z,17.75
2023-02-28T15:24:32.772Z,22.40
2023-02-28T15:27:44.186Z,20.00
2023-02-28T15:30:57.844Z,20.00
2023-02-28T15:34:08.107Z,24.20
2023-02-28T15:37:31.066Z,17.00
2023-02-28T15:40:40.152Z,21.20
2023-02-28T15:43:43.965Z,24.00
2023-02-28T15:46:58.952Z,21.20
2023-02-28T15:50:04.795Z,23.00
2023-02-28T15:53:15.740Z,18.80
2023-02-28T15:56:35.971Z,21.80
2023-02-28T15:59:39.745Z,23.00
2023-02-28T16:02:43.356Z,20.60
2023-02-28T16:05:47.024Z,21.60
2023-02-28T16:08:52.566Z,13.00
2023-02-28T16:11:58.769Z,23.60
2023-02-28T16:15:05.734Z,23.00
2023-02-28T16:18:13.593Z,19.00
2023-02-28T16:21:16.836Z,23.20
2023-02-28T16:24:20.257Z,23.50
2023-02-28T16:27:32.326Z,17.80
2023-02-28T16:30:35.708Z,23.60
2023-02-28T16:33:39.010Z,23.00
2023-02-28T16:36:42.572Z,19.80
2023-02-28T16:39:47.077Z,22.50
2023-02-28T16:42:54.907Z,18.00
2023-02-28T16:46:01.520Z,26.25
2023-02-28T16:49:05.240Z,21.00
2023-02-28T16:52:08.604Z,23.00
2023-02-28T16:55:12.501Z,22.50
2023-02-28T16:58:20.303Z,24.00
2023-02-28T17:01:23.752Z,24.50
2023-02-28T17:04:27.735Z,26.40
2023-02-28T17:07:31.216Z,24.20
2023-02-28T17:10:34.650Z,25.00
2023-02-28T17:13:39.271Z,24.40
2023-02-28T17:16:43.947Z,27.00
2023-02-28T17:19:47.270Z,25.60
2023-02-28T17:22:50.562Z,25.60
2023-02-28T17:25:57.944Z,25.80
2023-02-28T17:29:03.338Z,25.50
2023-02-28T17:32:17.200Z,21.50
2023-02-28T17:35:20.847Z,20.60
2023-02-28T17:38:24.913Z,25.00
2023-02-28T17:41:30.813Z,23.50
2023-02-28T17:44:35.583Z,23.80
2023-02-28T17:47:39.377Z,26.40
2023-02-28T17:50:43.193Z,25.33
2023-02-28T17:53:47.040Z,24.50
2023-02-28T17:56:50.271Z,26.25
2023-02-28T17:59:55.240Z,29.60
2023-02-28T18:02:58.529Z,28.00
2023-02-28T18:06:01.972Z,27.20
2023-02-28T18:09:05.430Z,29.50
2023-02-28T18:12:08.971Z,31.40
2023-02-28T18:15:14.046Z,26.00
2023-02-28T18:18:17.378Z,29.40
2023-02-28T18:21:20.676Z,33.00
2023-02-28T18:24:25.139Z,31.40
2023-02-28T18:27:28.465Z,29.80
2023-02-28T18:30:37.536Z,27.80
2023-02-28T18:33:40.837Z,32.00
2023-02-28T18:36:47.172Z,24.60
2023-02-28T18:39:50.471Z,29.50
2023-02-28T18:42:59.155Z,26.00
2023-02-28T18:46:07.290Z,30.20
2023-02-28T18:49:10.578Z,28.00
2023-02-28T18:52:13.824Z,32.20
2023-02-28T18:55:19.105Z,31.40
2023-02-28T18:58:22.354Z,29.00
2023-02-28T19:01:31.158Z,29.00
2023-02-28T19:04:34.354Z,34.00
2023-02-28T19:07:40.999Z,31.60
2023-02-28T19:10:44.235Z,28.00
2023-02-28T19:13:48.662Z,34.40
2023-02-28T19:16:53.322Z,37.40
2023-02-28T19:19:56.704Z,42.00
2023-02-28T19:23:00.633Z,41.20
2023-02-28T19:26:07.978Z,39.00
2023-02-28T19:29:11.235Z,42.00
2023-02-28T19:32:16.173Z,43.80
2023-02-28T19:35:19.602Z,45.00
2023-02-28T19:38:23.467Z,48.00
2023-02-28T19:41:27.117Z,44.60
2023-02-28T19:44:30.781Z,48.80
2023-02-28T19:47:35.437Z,52.00
2023-02-28T19:50:38.730Z,47.00
2023-02-28T19:53:43.878Z,49.00
2023-02-28T19:56:47.157Z,49.00
2023-02-28T19:59:51.227Z,50.00
2023-02-28T20:02:56.794Z,48.75
2023-02-28T20:06:02.177Z,51.75
2023-02-28T20:09:05.979Z,48.20
2023-02-28T20:12:17.932Z,49.00
2023-02-28T20:15:26.594Z,50.20
2023-02-28T20:18:31.397Z,50.25
2023-02-28T20:21:34.929Z,48.40
2023-02-28T20:24:38.430Z,51.00
2023-02-28T20:27:42.065Z,49.00
2023-02-28T20:30:45.893Z,49.80
2023-02-28T20:33:52.152Z,48.40
2023-02-28T20:36:56.638Z,47.00
2023-02-28T20:40:00.061Z,46.60
2023-02-28T20:43:03.580Z,49.00
2023-02-28T20:46:07.546Z,46.00
2023-02-28T20:49:13.002Z,49.00
2023-02-28T20:52:16.304Z,51.40
2023-02-28T20:55:20.884Z,45.20
2023-02-28T20:58:26.063Z,44.75
2023-02-28T21:01:30.597Z,45.00
2023-02-28T21:04:35.940Z,43.60
2023-02-28T21:07:39.235Z,45.00
2023-02-28T21:10:42.523Z,42.00
2023-02-28T21:13:46.731Z,46.00
2023-02-28T21:16:49.999Z,42.50
2023-02-28T21:19:54.898Z,49.00
2023-02-28T21:22:58.143Z,44.40
2023-02-28T21:26:05.560Z,46.00
2023-02-28T21:29:09.254Z,45.00
2023-02-28T21:32:12.565Z,51.40
2023-02-28T21:35:17.425Z,45.40
2023-02-28T21:38:20.730Z,76.00
2023-02-28T21:41:25.231Z,100.50
2023-02-28T21:44:30.246Z,138.20
2023-02-28T21:47:34.770Z,144.25
2023-02-28T21:50:40.413Z,117.75
2023-02-28T21:53:43.950Z,112.50
2023-02-28T21:56:47.633Z,105.00
2023-02-28T21:59:51.001Z,81.00
2023-02-28T22:02:54.313Z,88.50
2023-02-28T22:05:58.929Z,86.20
2023-02-28T22:09:06.103Z,86.20
2023-02-28T22:12:09.444Z,74.40
2023-02-28T22:15:13.761Z,81.60
2023-02-28T22:18:17.072Z,68.80
2023-02-28T22:21:23.381Z,72.00
2023-02-28T22:24:26.584Z,82.40
2023-02-28T22:27:29.863Z,80.60
2023-02-28T22:30:33.068Z,80.60
2023-02-28T22:33:36.426Z,80.80
2023-02-28T22:36:41.872Z,76.20
2023-02-28T22:39:45.828Z,77.00
2023-02-28T22:42:49.120Z,76.00
2023-02-28T22:45:52.446Z,75.00
2023-02-28T22:48:55.884Z,72.00
2023-02-28T22:52:00.849Z,69.00
2023-02-28T22:55:04.120Z,67.00
2023-02-28T22:58:07.897Z,66.00
2023-02-28T23:01:13.257Z,61.50
2023-02-28T23:04:17.052Z,66.25
2023-02-28T23:07:22.154Z,63.00
2023-02-28T23:10:25.435Z,63.40
2023-02-28T23:13:28.753Z,62.75
2023-02-28T23:16:34.653Z,63.40
2023-02-28T23:19:38.127Z,65.40
2023-02-28T23:22:46.582Z,60.20
2023-02-28T23:25:49.976Z,58.00
2023-02-28T23:28:53.325Z,61.40
2023-02-28T23:31:56.915Z,64.67
2023-02-28T23:35:01.050Z,59.60
2023-02-28T23:38:05.723Z,55.00
2023-02-28T23:41:09.713Z,57.00
2023-02-28T23:44:16.982Z,56.80
2023-02-28T23:47:20.389Z,56.40
2023-02-28T23:50:23.610Z,59.20
2023-02-28T23:53:31.795Z,55.50
2023-02-28T23:56:36.086Z,52.80
2023-02-28T23:59:39.394Z,53.00
